sensor_id;sensor_type;location;lat;lon;timestamp;temperature;humidity
420;DHT22;42600;54.408;13.016;2023-01-28T00:00:09;2.00;92.70
420;DHT22;42600;54.408;13.016;2023-01-28T00:02:37;2.00;92.70
420;DHT22;42600;54.408;13.016;2023-01-28T00:05:05;2.10;92.70
420;DHT22;42600;54.408;13.016;2023-01-28T00:07:31;2.00;92.70
420;DHT22;42600;54.408;13.016;2023-01-28T00:09:58;2.00;92.70
420;DHT22;42600;54.408;13.016;2023-01-28T00:12:24;2.00;92.70
420;DHT22;42600;54.408;13.016;2023-01-28T00:14:51;2.00;92.70
420;DHT22;42600;54.408;13.016;2023-01-28T00:17:18;2.00;92.70
420;DHT22;42600;54.408;13.016;2023-01-28T00:19:45;2.00;92.70
420;DHT22;42600;54.408;13.016;2023-01-28T00:22:12;2.00;92.70
420;DHT22;42600;54.408;13.016;2023-01-28T00:24:39;2.00;92.70
420;DHT22;42600;54.408;13.016;2023-01-28T00:27:06;2.00;92.70
420;DHT22;42600;54.408;13.016;2023-01-28T00:29:33;2.00;92.70
420;DHT22;42600;54.408;13.016;2023-01-28T00:31:59;2.00;92.70
420;DHT22;42600;54.408;13.016;2023-01-28T00:34:26;2.00;92.70
420;DHT22;42600;54.408;13.016;2023-01-28T00:36:54;1.90;92.70
420;DHT22;42600;54.408;13.016;2023-01-28T00:39:23;1.90;92.70
420;DHT22;42600;54.408;13.016;2023-01-28T00:41:50;1.90;92.70
420;DHT22;42600;54.408;13.016;2023-01-28T00:44:17;1.90;92.70
420;DHT22;42600;54.408;13.016;2023-01-28T00:46:43;1.90;92.70
420;DHT22;42600;54.408;13.016;2023-01-28T00:49:10;1.90;92.70
420;DHT22;42600;54.408;13.016;2023-01-28T00:51:37;1.90;92.70
420;DHT22;42600;54.408;13.016;2023-01-28T00:54:05;1.80;92.70
420;DHT22;42600;54.408;13.016;2023-01-28T00:56:32;1.80;92.70
420;DHT22;42600;54.408;13.016;2023-01-28T00:58:58;1.90;92.70
420;DHT22;42600;54.408;13.016;2023-01-28T01:01:26;1.90;92.70
420;DHT22;42600;54.408;13.016;2023-01-28T01:03:54;1.80;92.70
420;DHT22;42600;54.408;13.016;2023-01-28T01:06:27;1.90;92.70
420;DHT22;42600;54.408;13.016;2023-01-28T01:08:54;1.90;92.70
420;DHT22;42600;54.408;13.016;2023-01-28T01:11:22;2.00;92.70
420;DHT22;42600;54.408;13.016;2023-01-28T01:13:50;2.00;92.70
420;DHT22;42600;54.408;13.016;2023-01-28T01:16:16;2.00;92.70
420;DHT22;42600;54.408;13.016;2023-01-28T01:18:43;2.00;92.70
420;DHT22;42600;54.408;13.016;2023-01-28T01:21:12;2.00;92.70
420;DHT22;42600;54.408;13.016;2023-01-28T01:23:39;2.00;92.70
420;DHT22;42600;54.408;13.016;2023-01-28T01:26:06;2.00;92.70
420;DHT22;42600;54.408;13.016;2023-01-28T01:28:34;2.00;92.70
420;DHT22;42600;54.408;13.016;2023-01-28T01:31:02;2.00;92.70
420;DHT22;42600;54.408;13.016;2023-01-28T01:33:30;1.90;92.70
420;DHT22;42600;54.408;13.016;2023-01-28T01:35:57;1.90;92.70
420;DHT22;42600;54.408;13.016;2023-01-28T01:38:24;2.00;92.70
420;DHT22;42600;54.408;13.016;2023-01-28T01:40:51;2.00;92.70
420;DHT22;42600;54.408;13.016;2023-01-28T01:43:19;1.90;92.70
420;DHT22;42600;54.408;13.016;2023-01-28T01:45:49;1.90;90.90
420;DHT22;42600;54.408;13.016;2023-01-28T01:48:20;1.90;87.80
420;DHT22;42600;54.408;13.016;2023-01-28T01:50:51;2.00;87.60
420;DHT22;42600;54.408;13.016;2023-01-28T01:53:21;2.00;90.90
420;DHT22;42600;54.408;13.016;2023-01-28T01:55:52;2.00;92.70
420;DHT22;42600;54.408;13.016;2023-01-28T01:58:22;2.00;92.70
420;DHT22;42600;54.408;13.016;2023-01-28T02:00:51;2.00;92.70
420;DHT22;42600;54.408;13.016;2023-01-28T02:03:22;1.90;92.70
420;DHT22;42600;54.408;13.016;2023-01-28T02:05:51;1.90;91.90
420;DHT22;42600;54.408;13.016;2023-01-28T02:08:18;1.90;92.70
420;DHT22;42600;54.408;13.016;2023-01-28T02:10:51;2.00;92.70
420;DHT22;42600;54.408;13.016;2023-01-28T02:13:20;2.00;92.70
420;DHT22;42600;54.408;13.016;2023-01-28T02:15:48;2.00;92.70
420;DHT22;42600;54.408;13.016;2023-01-28T02:18:17;2.00;92.70
420;DHT22;42600;54.408;13.016;2023-01-28T02:20:59;2.00;92.70
420;DHT22;42600;54.408;13.016;2023-01-28T02:23:49;2.00;92.70
420;DHT22;42600;54.408;13.016;2023-01-28T02:29:43;1.90;92.70
420;DHT22;42600;54.408;13.016;2023-01-28T02:32:15;2.00;92.70
420;DHT22;42600;54.408;13.016;2023-01-28T02:34:45;2.00;92.70
420;DHT22;42600;54.408;13.016;2023-01-28T02:37:16;2.00;92.70
420;DHT22;42600;54.408;13.016;2023-01-28T02:39:48;1.90;92.70
420;DHT22;42600;54.408;13.016;2023-01-28T02:42:19;1.90;92.70
420;DHT22;42600;54.408;13.016;2023-01-28T02:44:48;1.90;92.70
420;DHT22;42600;54.408;13.016;2023-01-28T02:47:15;2.00;92.70
420;DHT22;42600;54.408;13.016;2023-01-28T02:50:02;1.80;92.70
420;DHT22;42600;54.408;13.016;2023-01-28T02:52:40;1.80;92.70
420;DHT22;42600;54.408;13.016;2023-01-28T02:55:34;1.90;92.70
420;DHT22;42600;54.408;13.016;2023-01-28T02:58:09;1.80;92.70
420;DHT22;42600;54.408;13.016;2023-01-28T03:00:45;1.80;92.70
420;DHT22;42600;54.408;13.016;2023-01-28T03:03:17;1.90;92.70
420;DHT22;42600;54.408;13.016;2023-01-28T03:05:51;1.90;92.70
420;DHT22;42600;54.408;13.016;2023-01-28T03:08:33;1.90;92.70
420;DHT22;42600;54.408;13.016;2023-01-28T03:11:19;1.90;92.70
420;DHT22;42600;54.408;13.016;2023-01-28T03:14:04;1.80;92.70
420;DHT22;42600;54.408;13.016;2023-01-28T03:16:50;1.70;92.70
420;DHT22;42600;54.408;13.016;2023-01-28T03:19:36;1.70;92.70
420;DHT22;42600;54.408;13.016;2023-01-28T03:22:21;1.80;92.70
420;DHT22;42600;54.408;13.016;2023-01-28T03:25:07;1.80;92.70
420;DHT22;42600;54.408;13.016;2023-01-28T03:27:57;1.70;92.70
420;DHT22;42600;54.408;13.016;2023-01-28T03:30:47;1.70;92.70
420;DHT22;42600;54.408;13.016;2023-01-28T03:33:34;1.80;92.70
420;DHT22;42600;54.408;13.016;2023-01-28T03:36:19;1.80;92.70
420;DHT22;42600;54.408;13.016;2023-01-28T03:39:04;1.70;92.70
420;DHT22;42600;54.408;13.016;2023-01-28T03:41:30;1.80;92.70
420;DHT22;42600;54.408;13.016;2023-01-28T03:43:57;1.90;92.70
420;DHT22;42600;54.408;13.016;2023-01-28T03:46:41;1.80;92.70
420;DHT22;42600;54.408;13.016;2023-01-28T03:49:09;1.80;92.70
420;DHT22;42600;54.408;13.016;2023-01-28T03:51:36;1.70;92.70
420;DHT22;42600;54.408;13.016;2023-01-28T03:54:03;1.70;92.70
420;DHT22;42600;54.408;13.016;2023-01-28T03:56:30;1.80;92.70
420;DHT22;42600;54.408;13.016;2023-01-28T03:59:01;1.80;92.70
420;DHT22;42600;54.408;13.016;2023-01-28T04:01:28;1.80;92.70
420;DHT22;42600;54.408;13.016;2023-01-28T04:03:55;1.80;92.70
420;DHT22;42600;54.408;13.016;2023-01-28T04:06:22;1.80;92.70
420;DHT22;42600;54.408;13.016;2023-01-28T04:08:49;1.90;92.70
420;DHT22;42600;54.408;13.016;2023-01-28T04:11:19;1.80;92.70
420;DHT22;42600;54.408;13.016;2023-01-28T04:13:47;1.70;92.70
420;DHT22;42600;54.408;13.016;2023-01-28T04:16:15;1.70;92.70
420;DHT22;42600;54.408;13.016;2023-01-28T04:18:42;1.70;92.70
420;DHT22;42600;54.408;13.016;2023-01-28T04:21:09;1.70;92.70
420;DHT22;42600;54.408;13.016;2023-01-28T04:23:37;1.70;92.70
420;DHT22;42600;54.408;13.016;2023-01-28T04:26:04;1.70;92.70
420;DHT22;42600;54.408;13.016;2023-01-28T04:28:30;1.70;92.70
420;DHT22;42600;54.408;13.016;2023-01-28T04:30:57;1.70;92.70
420;DHT22;42600;54.408;13.016;2023-01-28T04:33:24;1.60;92.70
420;DHT22;42600;54.408;13.016;2023-01-28T04:35:50;1.60;92.70
420;DHT22;42600;54.408;13.016;2023-01-28T04:38:17;1.50;92.70
420;DHT22;42600;54.408;13.016;2023-01-28T04:40:48;1.60;92.70
420;DHT22;42600;54.408;13.016;2023-01-28T04:43:15;1.50;92.70
420;DHT22;42600;54.408;13.016;2023-01-28T04:45:42;1.50;92.70
420;DHT22;42600;54.408;13.016;2023-01-28T04:48:09;1.60;92.70
420;DHT22;42600;54.408;13.016;2023-01-28T04:50:35;1.50;92.70
420;DHT22;42600;54.408;13.016;2023-01-28T04:53:02;1.50;92.70
420;DHT22;42600;54.408;13.016;2023-01-28T04:55:29;1.50;92.70
420;DHT22;42600;54.408;13.016;2023-01-28T04:57:57;1.50;92.70
420;DHT22;42600;54.408;13.016;2023-01-28T05:00:23;1.50;92.70
420;DHT22;42600;54.408;13.016;2023-01-28T05:02:50;1.50;92.70
420;DHT22;42600;54.408;13.016;2023-01-28T05:05:16;1.40;92.70
420;DHT22;42600;54.408;13.016;2023-01-28T05:07:49;1.40;92.70
420;DHT22;42600;54.408;13.016;2023-01-28T05:10:16;1.40;92.70
420;DHT22;42600;54.408;13.016;2023-01-28T05:12:44;1.40;92.70
420;DHT22;42600;54.408;13.016;2023-01-28T05:15:12;1.50;92.70
420;DHT22;42600;54.408;13.016;2023-01-28T05:17:38;1.40;92.70
420;DHT22;42600;54.408;13.016;2023-01-28T05:20:06;1.40;92.70
420;DHT22;42600;54.408;13.016;2023-01-28T05:22:33;1.40;92.70
420;DHT22;42600;54.408;13.016;2023-01-28T05:24:59;1.40;92.70
420;DHT22;42600;54.408;13.016;2023-01-28T05:27:28;1.40;92.70
420;DHT22;42600;54.408;13.016;2023-01-28T05:29:56;1.40;92.70
420;DHT22;42600;54.408;13.016;2023-01-28T05:32:24;1.40;92.70
420;DHT22;42600;54.408;13.016;2023-01-28T05:34:50;1.40;92.70
420;DHT22;42600;54.408;13.016;2023-01-28T05:37:17;1.40;92.70
420;DHT22;42600;54.408;13.016;2023-01-28T05:39:43;1.40;92.70
420;DHT22;42600;54.408;13.016;2023-01-28T05:42:10;1.40;92.70
420;DHT22;42600;54.408;13.016;2023-01-28T05:44:37;1.30;92.70
420;DHT22;42600;54.408;13.016;2023-01-28T05:47:03;1.30;92.70
420;DHT22;42600;54.408;13.016;2023-01-28T05:49:31;1.30;92.70
420;DHT22;42600;54.408;13.016;2023-01-28T05:51:58;1.30;92.70
420;DHT22;42600;54.408;13.016;2023-01-28T05:54:26;1.30;92.70
420;DHT22;42600;54.408;13.016;2023-01-28T05:56:53;1.30;92.70
420;DHT22;42600;54.408;13.016;2023-01-28T05:59:19;1.30;92.70
420;DHT22;42600;54.408;13.016;2023-01-28T06:01:46;1.30;92.70
420;DHT22;42600;54.408;13.016;2023-01-28T06:04:13;1.30;92.70
420;DHT22;42600;54.408;13.016;2023-01-28T06:06:44;1.30;92.70
420;DHT22;42600;54.408;13.016;2023-01-28T06:09:10;1.30;92.70
420;DHT22;42600;54.408;13.016;2023-01-28T06:11:37;1.30;92.70
420;DHT22;42600;54.408;13.016;2023-01-28T06:14:03;1.30;92.70
420;DHT22;42600;54.408;13.016;2023-01-28T06:16:30;1.30;92.70
420;DHT22;42600;54.408;13.016;2023-01-28T06:18:56;1.30;92.70
420;DHT22;42600;54.408;13.016;2023-01-28T06:21:23;1.30;92.70
420;DHT22;42600;54.408;13.016;2023-01-28T06:23:51;1.20;92.70
420;DHT22;42600;54.408;13.016;2023-01-28T06:26:18;1.20;92.70
420;DHT22;42600;54.408;13.016;2023-01-28T06:28:44;1.20;92.70
420;DHT22;42600;54.408;13.016;2023-01-28T06:31:11;1.20;92.70
420;DHT22;42600;54.408;13.016;2023-01-28T06:33:38;1.20;92.70
420;DHT22;42600;54.408;13.016;2023-01-28T06:36:05;1.20;92.70
420;DHT22;42600;54.408;13.016;2023-01-28T06:38:32;1.20;92.70
420;DHT22;42600;54.408;13.016;2023-01-28T06:41:01;1.10;92.70
420;DHT22;42600;54.408;13.016;2023-01-28T06:43:27;1.10;92.70
420;DHT22;42600;54.408;13.016;2023-01-28T06:45:55;1.10;92.70
420;DHT22;42600;54.408;13.016;2023-01-28T06:48:22;1.10;92.70
420;DHT22;42600;54.408;13.016;2023-01-28T06:50:49;1.10;92.70
420;DHT22;42600;54.408;13.016;2023-01-28T06:53:16;1.10;92.70
420;DHT22;42600;54.408;13.016;2023-01-28T06:55:44;1.10;92.70
420;DHT22;42600;54.408;13.016;2023-01-28T06:58:11;1.10;92.70
420;DHT22;42600;54.408;13.016;2023-01-28T07:00:38;1.10;92.70
420;DHT22;42600;54.408;13.016;2023-01-28T07:03:05;1.10;92.70
420;DHT22;42600;54.408;13.016;2023-01-28T07:05:31;1.10;92.70
420;DHT22;42600;54.408;13.016;2023-01-28T07:07:58;1.00;92.70
420;DHT22;42600;54.408;13.016;2023-01-28T07:10:26;1.00;92.70
420;DHT22;42600;54.408;13.016;2023-01-28T07:12:53;1.00;92.70
420;DHT22;42600;54.408;13.016;2023-01-28T07:15:21;1.00;92.70
420;DHT22;42600;54.408;13.016;2023-01-28T07:17:47;1.00;92.70
420;DHT22;42600;54.408;13.016;2023-01-28T07:20:15;1.00;92.70
420;DHT22;42600;54.408;13.016;2023-01-28T07:22:42;1.00;92.70
420;DHT22;42600;54.408;13.016;2023-01-28T07:25:11;1.00;92.70
420;DHT22;42600;54.408;13.016;2023-01-28T07:27:38;1.00;92.70
420;DHT22;42600;54.408;13.016;2023-01-28T07:30:05;1.00;92.70
420;DHT22;42600;54.408;13.016;2023-01-28T07:32:33;1.00;92.70
420;DHT22;42600;54.408;13.016;2023-01-28T07:35:00;1.00;92.70
420;DHT22;42600;54.408;13.016;2023-01-28T07:37:26;1.00;92.70
420;DHT22;42600;54.408;13.016;2023-01-28T07:39:53;1.10;92.70
420;DHT22;42600;54.408;13.016;2023-01-28T07:42:19;1.00;92.70
420;DHT22;42600;54.408;13.016;2023-01-28T07:44:46;1.10;92.70
420;DHT22;42600;54.408;13.016;2023-01-28T07:47:13;1.10;92.70
420;DHT22;42600;54.408;13.016;2023-01-28T07:49:41;1.10;92.70
420;DHT22;42600;54.408;13.016;2023-01-28T07:52:08;1.10;92.70
420;DHT22;42600;54.408;13.016;2023-01-28T07:54:35;1.20;92.70
420;DHT22;42600;54.408;13.016;2023-01-28T07:57:01;1.20;92.70
420;DHT22;42600;54.408;13.016;2023-01-28T07:59:30;1.30;92.70
420;DHT22;42600;54.408;13.016;2023-01-28T08:01:57;1.30;92.70
420;DHT22;42600;54.408;13.016;2023-01-28T08:04:23;1.40;92.70
420;DHT22;42600;54.408;13.016;2023-01-28T08:06:51;1.50;92.70
420;DHT22;42600;54.408;13.016;2023-01-28T08:09:18;1.50;92.70
420;DHT22;42600;54.408;13.016;2023-01-28T08:11:44;1.60;92.70
420;DHT22;42600;54.408;13.016;2023-01-28T08:14:11;1.60;92.70
420;DHT22;42600;54.408;13.016;2023-01-28T08:16:38;1.60;92.70
420;DHT22;42600;54.408;13.016;2023-01-28T08:19:04;1.60;92.70
420;DHT22;42600;54.408;13.016;2023-01-28T08:21:31;1.70;92.70
420;DHT22;42600;54.408;13.016;2023-01-28T08:23:59;1.70;92.70
420;DHT22;42600;54.408;13.016;2023-01-28T08:26:25;1.70;92.70
420;DHT22;42600;54.408;13.016;2023-01-28T08:28:52;1.70;92.70
420;DHT22;42600;54.408;13.016;2023-01-28T08:31:18;1.70;92.70
420;DHT22;42600;54.408;13.016;2023-01-28T08:33:45;1.70;92.70
420;DHT22;42600;54.408;13.016;2023-01-28T08:36:11;1.70;92.70
420;DHT22;42600;54.408;13.016;2023-01-28T08:38:38;1.70;92.70
420;DHT22;42600;54.408;13.016;2023-01-28T08:41:06;1.70;92.70
420;DHT22;42600;54.408;13.016;2023-01-28T08:43:32;1.80;92.70
420;DHT22;42600;54.408;13.016;2023-01-28T08:45:59;1.80;92.70
420;DHT22;42600;54.408;13.016;2023-01-28T08:48:25;1.90;92.70
420;DHT22;42600;54.408;13.016;2023-01-28T08:50:52;1.90;92.70
420;DHT22;42600;54.408;13.016;2023-01-28T08:53:19;2.00;92.70
420;DHT22;42600;54.408;13.016;2023-01-28T08:55:46;2.00;92.70
420;DHT22;42600;54.408;13.016;2023-01-28T08:58:16;2.10;92.70
420;DHT22;42600;54.408;13.016;2023-01-28T09:00:44;2.10;92.70
420;DHT22;42600;54.408;13.016;2023-01-28T09:03:10;2.10;92.70
420;DHT22;42600;54.408;13.016;2023-01-28T09:05:37;2.10;92.70
420;DHT22;42600;54.408;13.016;2023-01-28T09:08:06;2.10;92.70
420;DHT22;42600;54.408;13.016;2023-01-28T09:10:33;2.10;92.70
420;DHT22;42600;54.408;13.016;2023-01-28T09:13:03;2.20;92.70
420;DHT22;42600;54.408;13.016;2023-01-28T09:15:32;2.20;92.70
420;DHT22;42600;54.408;13.016;2023-01-28T09:17:58;2.20;92.70
420;DHT22;42600;54.408;13.016;2023-01-28T09:20:25;2.30;92.70
420;DHT22;42600;54.408;13.016;2023-01-28T09:22:52;2.30;92.70
420;DHT22;42600;54.408;13.016;2023-01-28T09:25:19;2.30;92.70
420;DHT22;42600;54.408;13.016;2023-01-28T09:27:45;2.30;92.70
420;DHT22;42600;54.408;13.016;2023-01-28T09:30:13;2.40;92.70
420;DHT22;42600;54.408;13.016;2023-01-28T09:32:41;2.40;92.70
420;DHT22;42600;54.408;13.016;2023-01-28T09:35:08;2.40;92.70
420;DHT22;42600;54.408;13.016;2023-01-28T09:37:36;2.40;92.70
420;DHT22;42600;54.408;13.016;2023-01-28T09:40:03;2.40;92.70
420;DHT22;42600;54.408;13.016;2023-01-28T09:42:42;2.40;92.70
420;DHT22;42600;54.408;13.016;2023-01-28T09:45:15;2.40;92.70
420;DHT22;42600;54.408;13.016;2023-01-28T09:47:47;2.50;92.70
420;DHT22;42600;54.408;13.016;2023-01-28T09:50:19;2.40;92.70
420;DHT22;42600;54.408;13.016;2023-01-28T09:52:50;2.40;92.70
420;DHT22;42600;54.408;13.016;2023-01-28T09:55:24;2.50;92.70
420;DHT22;42600;54.408;13.016;2023-01-28T09:57:55;2.50;92.70
420;DHT22;42600;54.408;13.016;2023-01-28T10:00:23;2.50;92.70
420;DHT22;42600;54.408;13.016;2023-01-28T10:03:11;2.50;92.70
420;DHT22;42600;54.408;13.016;2023-01-28T10:05:46;2.50;92.70
420;DHT22;42600;54.408;13.016;2023-01-28T10:08:26;2.60;92.70
420;DHT22;42600;54.408;13.016;2023-01-28T10:11:01;2.60;92.70
420;DHT22;42600;54.408;13.016;2023-01-28T10:13:39;2.60;92.70
420;DHT22;42600;54.408;13.016;2023-01-28T10:16:18;2.60;92.70
420;DHT22;42600;54.408;13.016;2023-01-28T10:18:51;2.60;92.70
420;DHT22;42600;54.408;13.016;2023-01-28T10:21:23;2.60;92.70
420;DHT22;42600;54.408;13.016;2023-01-28T10:24:00;2.60;92.70
420;DHT22;42600;54.408;13.016;2023-01-28T10:26:32;2.60;92.70
420;DHT22;42600;54.408;13.016;2023-01-28T10:29:08;2.60;92.70
420;DHT22;42600;54.408;13.016;2023-01-28T10:31:43;2.60;92.70
420;DHT22;42600;54.408;13.016;2023-01-28T10:34:14;2.70;92.70
420;DHT22;42600;54.408;13.016;2023-01-28T10:36:40;2.70;92.70
420;DHT22;42600;54.408;13.016;2023-01-28T10:39:08;2.70;92.70
420;DHT22;42600;54.408;13.016;2023-01-28T10:41:36;2.70;92.70
420;DHT22;42600;54.408;13.016;2023-01-28T10:44:05;2.80;92.70
420;DHT22;42600;54.408;13.016;2023-01-28T10:46:38;2.80;92.70
420;DHT22;42600;54.408;13.016;2023-01-28T10:49:11;2.80;92.70
420;DHT22;42600;54.408;13.016;2023-01-28T10:51:41;2.90;92.70
420;DHT22;42600;54.408;13.016;2023-01-28T10:54:18;2.90;92.70
420;DHT22;42600;54.408;13.016;2023-01-28T10:56:45;3.00;92.70
420;DHT22;42600;54.408;13.016;2023-01-28T10:59:19;3.00;92.70
420;DHT22;42600;54.408;13.016;2023-01-28T11:01:48;3.10;92.70
420;DHT22;42600;54.408;13.016;2023-01-28T11:04:18;3.10;92.70
420;DHT22;42600;54.408;13.016;2023-01-28T11:06:55;3.10;92.70
420;DHT22;42600;54.408;13.016;2023-01-28T11:09:23;3.10;92.70
420;DHT22;42600;54.408;13.016;2023-01-28T11:11:50;3.10;92.70
420;DHT22;42600;54.408;13.016;2023-01-28T11:14:21;3.10;92.70
420;DHT22;42600;54.408;13.016;2023-01-28T11:16:49;3.10;92.70
420;DHT22;42600;54.408;13.016;2023-01-28T11:19:18;3.10;92.70
420;DHT22;42600;54.408;13.016;2023-01-28T11:21:48;3.10;92.70
420;DHT22;42600;54.408;13.016;2023-01-28T11:24:20;3.10;92.70
420;DHT22;42600;54.408;13.016;2023-01-28T11:26:48;3.10;92.70
420;DHT22;42600;54.408;13.016;2023-01-28T11:29:26;3.10;92.40
420;DHT22;42600;54.408;13.016;2023-01-28T11:31:54;3.10;92.40
420;DHT22;42600;54.408;13.016;2023-01-28T11:34:25;3.10;92.10
420;DHT22;42600;54.408;13.016;2023-01-28T11:36:54;3.00;92.30
420;DHT22;42600;54.408;13.016;2023-01-28T11:39:24;3.00;92.30
420;DHT22;42600;54.408;13.016;2023-01-28T11:41:53;3.00;92.70
420;DHT22;42600;54.408;13.016;2023-01-28T11:44:22;3.00;92.60
420;DHT22;42600;54.408;13.016;2023-01-28T11:47:04;3.10;92.70
420;DHT22;42600;54.408;13.016;2023-01-28T11:49:43;3.00;92.70
420;DHT22;42600;54.408;13.016;2023-01-28T11:52:19;3.00;92.50
420;DHT22;42600;54.408;13.016;2023-01-28T11:54:57;3.00;92.30
420;DHT22;42600;54.408;13.016;2023-01-28T11:57:34;3.00;92.10
420;DHT22;42600;54.408;13.016;2023-01-28T12:00:34;3.00;92.20
420;DHT22;42600;54.408;13.016;2023-01-28T12:03:20;3.00;91.90
420;DHT22;42600;54.408;13.016;2023-01-28T12:05:51;3.10;91.60
420;DHT22;42600;54.408;13.016;2023-01-28T12:08:22;3.00;91.30
420;DHT22;42600;54.408;13.016;2023-01-28T12:11:05;3.10;91.30
420;DHT22;42600;54.408;13.016;2023-01-28T12:13:47;3.10;91.10
420;DHT22;42600;54.408;13.016;2023-01-28T12:16:35;3.10;91.40
420;DHT22;42600;54.408;13.016;2023-01-28T12:19:17;3.10;91.00
420;DHT22;42600;54.408;13.016;2023-01-28T12:21:57;3.00;90.90
420;DHT22;42600;54.408;13.016;2023-01-28T12:24:39;3.10;90.90
420;DHT22;42600;54.408;13.016;2023-01-28T12:27:24;3.10;90.50
420;DHT22;42600;54.408;13.016;2023-01-28T12:29:56;3.10;90.80
420;DHT22;42600;54.408;13.016;2023-01-28T12:32:38;3.10;91.40
420;DHT22;42600;54.408;13.016;2023-01-28T12:35:28;3.20;91.00
420;DHT22;42600;54.408;13.016;2023-01-28T12:38:07;3.20;90.60
420;DHT22;42600;54.408;13.016;2023-01-28T12:40:52;3.20;90.00
420;DHT22;42600;54.408;13.016;2023-01-28T12:43:28;3.20;89.80
420;DHT22;42600;54.408;13.016;2023-01-28T12:46:01;3.30;89.80
420;DHT22;42600;54.408;13.016;2023-01-28T12:48:33;3.30;89.70
420;DHT22;42600;54.408;13.016;2023-01-28T12:51:03;3.30;89.20
420;DHT22;42600;54.408;13.016;2023-01-28T12:53:37;3.30;89.00
420;DHT22;42600;54.408;13.016;2023-01-28T12:56:09;3.30;88.80
420;DHT22;42600;54.408;13.016;2023-01-28T12:58:46;3.40;89.10
420;DHT22;42600;54.408;13.016;2023-01-28T13:01:17;3.40;89.60
420;DHT22;42600;54.408;13.016;2023-01-28T13:03:50;3.50;89.60
420;DHT22;42600;54.408;13.016;2023-01-28T13:06:23;3.50;89.40
420;DHT22;42600;54.408;13.016;2023-01-28T13:08:50;3.50;89.20
420;DHT22;42600;54.408;13.016;2023-01-28T13:11:21;3.50;89.40
420;DHT22;42600;54.408;13.016;2023-01-28T13:13:51;3.50;89.00
420;DHT22;42600;54.408;13.016;2023-01-28T13:16:17;3.50;88.80
420;DHT22;42600;54.408;13.016;2023-01-28T13:18:45;3.50;88.50
420;DHT22;42600;54.408;13.016;2023-01-28T13:21:15;3.50;89.10
420;DHT22;42600;54.408;13.016;2023-01-28T13:23:44;3.50;89.30
420;DHT22;42600;54.408;13.016;2023-01-28T13:26:27;3.50;89.50
420;DHT22;42600;54.408;13.016;2023-01-28T13:29:07;3.50;89.50
420;DHT22;42600;54.408;13.016;2023-01-28T13:31:39;3.50;89.30
420;DHT22;42600;54.408;13.016;2023-01-28T13:34:08;3.50;89.60
420;DHT22;42600;54.408;13.016;2023-01-28T13:36:38;3.50;89.40
420;DHT22;42600;54.408;13.016;2023-01-28T13:39:16;3.50;89.30
420;DHT22;42600;54.408;13.016;2023-01-28T13:41:45;3.50;89.90
420;DHT22;42600;54.408;13.016;2023-01-28T13:44:19;3.50;90.20
420;DHT22;42600;54.408;13.016;2023-01-28T13:46:46;3.40;90.10
420;DHT22;42600;54.408;13.016;2023-01-28T13:49:15;3.40;90.70
420;DHT22;42600;54.408;13.016;2023-01-28T13:51:55;3.40;90.80
420;DHT22;42600;54.408;13.016;2023-01-28T13:54:24;3.40;90.80
420;DHT22;42600;54.408;13.016;2023-01-28T13:57:04;3.40;91.00
420;DHT22;42600;54.408;13.016;2023-01-28T13:59:46;3.30;91.20
420;DHT22;42600;54.408;13.016;2023-01-28T14:02:39;3.30;90.90
420;DHT22;42600;54.408;13.016;2023-01-28T14:05:23;3.30;90.90
420;DHT22;42600;54.408;13.016;2023-01-28T14:08:23;3.20;90.70
420;DHT22;42600;54.408;13.016;2023-01-28T14:11:03;3.20;90.40
420;DHT22;42600;54.408;13.016;2023-01-28T14:13:42;3.10;90.10
420;DHT22;42600;54.408;13.016;2023-01-28T14:16:31;3.10;90.60
420;DHT22;42600;54.408;13.016;2023-01-28T14:19:02;3.10;91.00
420;DHT22;42600;54.408;13.016;2023-01-28T14:21:31;3.10;90.90
420;DHT22;42600;54.408;13.016;2023-01-28T14:23:59;3.00;90.80
420;DHT22;42600;54.408;13.016;2023-01-28T14:26:45;3.00;90.90
420;DHT22;42600;54.408;13.016;2023-01-28T14:29:26;3.00;91.10
420;DHT22;42600;54.408;13.016;2023-01-28T14:32:03;2.90;91.00
420;DHT22;42600;54.408;13.016;2023-01-28T14:34:32;2.90;91.40
420;DHT22;42600;54.408;13.016;2023-01-28T14:37:03;2.90;91.40
420;DHT22;42600;54.408;13.016;2023-01-28T14:39:36;2.90;91.40
420;DHT22;42600;54.408;13.016;2023-01-28T14:42:04;2.90;91.70
420;DHT22;42600;54.408;13.016;2023-01-28T14:44:34;2.90;91.50
420;DHT22;42600;54.408;13.016;2023-01-28T14:50:06;2.90;91.90
420;DHT22;42600;54.408;13.016;2023-01-28T14:53:01;2.90;91.90
420;DHT22;42600;54.408;13.016;2023-01-28T14:55:39;2.90;91.90
420;DHT22;42600;54.408;13.016;2023-01-28T14:58:15;2.80;92.00
420;DHT22;42600;54.408;13.016;2023-01-28T15:00:52;2.80;92.00
420;DHT22;42600;54.408;13.016;2023-01-28T15:03:21;2.80;92.20
420;DHT22;42600;54.408;13.016;2023-01-28T15:05:48;2.80;92.10
420;DHT22;42600;54.408;13.016;2023-01-28T15:08:21;2.70;91.90
420;DHT22;42600;54.408;13.016;2023-01-28T15:10:48;2.70;92.10
420;DHT22;42600;54.408;13.016;2023-01-28T15:13:21;2.70;92.10
420;DHT22;42600;54.408;13.016;2023-01-28T15:15:49;2.70;92.30
420;DHT22;42600;54.408;13.016;2023-01-28T15:18:28;2.70;92.30
420;DHT22;42600;54.408;13.016;2023-01-28T15:20:55;2.70;92.40
420;DHT22;42600;54.408;13.016;2023-01-28T15:23:26;2.70;92.50
420;DHT22;42600;54.408;13.016;2023-01-28T15:25:53;2.60;92.70
420;DHT22;42600;54.408;13.016;2023-01-28T15:28:25;2.60;92.60
420;DHT22;42600;54.408;13.016;2023-01-28T15:30:52;2.60;92.60
420;DHT22;42600;54.408;13.016;2023-01-28T15:33:21;2.60;92.70
420;DHT22;42600;54.408;13.016;2023-01-28T15:35:50;2.60;92.70
420;DHT22;42600;54.408;13.016;2023-01-28T15:38:17;2.60;92.70
420;DHT22;42600;54.408;13.016;2023-01-28T15:40:48;2.60;92.70
420;DHT22;42600;54.408;13.016;2023-01-28T15:43:21;2.60;92.70
420;DHT22;42600;54.408;13.016;2023-01-28T15:45:50;2.50;92.70
420;DHT22;42600;54.408;13.016;2023-01-28T15:48:20;2.50;92.70
420;DHT22;42600;54.408;13.016;2023-01-28T15:50:56;2.50;92.70
420;DHT22;42600;54.408;13.016;2023-01-28T15:53:23;2.50;92.70
420;DHT22;42600;54.408;13.016;2023-01-28T15:55:49;2.50;92.70
420;DHT22;42600;54.408;13.016;2023-01-28T15:58:28;2.50;92.70
420;DHT22;42600;54.408;13.016;2023-01-28T16:01:12;2.40;92.70
420;DHT22;42600;54.408;13.016;2023-01-28T16:03:40;2.40;92.70
420;DHT22;42600;54.408;13.016;2023-01-28T16:06:09;2.40;92.70
420;DHT22;42600;54.408;13.016;2023-01-28T16:08:39;2.40;92.70
420;DHT22;42600;54.408;13.016;2023-01-28T16:11:08;2.40;92.70
420;DHT22;42600;54.408;13.016;2023-01-28T16:13:40;2.40;92.70
420;DHT22;42600;54.408;13.016;2023-01-28T16:16:08;2.30;92.70
420;DHT22;42600;54.408;13.016;2023-01-28T16:18:39;2.30;92.70
420;DHT22;42600;54.408;13.016;2023-01-28T16:21:10;2.30;92.70
420;DHT22;42600;54.408;13.016;2023-01-28T16:23:38;2.30;92.70
420;DHT22;42600;54.408;13.016;2023-01-28T16:26:18;2.30;92.70
420;DHT22;42600;54.408;13.016;2023-01-28T16:28:45;2.30;92.70
420;DHT22;42600;54.408;13.016;2023-01-28T16:31:11;2.30;92.70